Creston, Montana
Current Conditions -  °F | °C
As of 12:55 AM on Saturday 20 Dec 2014 (Local Time) from KGPI Reporting Station
Overcast Overcast  
Wind Chill: 30°   Ceiling: 6500
Heat Index: 35°   Visibility: 10mi
Dew Point: 32°   Wind: 6mph
Humidity: 89%   Direction: 180°S
Pressure: 29.95"   Gusts: NA
Location:  48.1017°N, 113.751°W
Report Text: KGPI 200755Z 18005KT 10SM SCT042 OVC065 02/00 A2995 RMK AO2 SLP165 T00170000 $
Loading
Personal Weather Stations






























Interactive Weather Map New forecast layout! Learn more

10-Day Weather Forecast

Advertisements
Track Severe Weather on mobile